Country
Station

 

Weather  for  Great Bend Automatic Weather Observing/Reporting System  -  United States    United States

  
-8 °C (18 °F)
    
 
 

Current METAR for Great Bend Automatic Weather Observing/Reporting System is :

KGBD 191356Z AUTO 04007KT 5SM BR OVC008 M08/M09 A3031 RMK AO2 SLP293 T10781089 FZRANO

 

This is a report for Great Bend Automatic Weather Observing/Reporting System - United States.
 
The report was made 15 minutes ago, at 13:56 UTC .
The wind was blowing at a speed of 3.6 meters per second (8.1 miles per hour) from northeast (040°).
 
The temperature was -8 °C (18 °F), with a dew-point at -9 °C (16 °F).
The temperature felt like -13 °C (8 °F).
 
The atmospheric pressure was 1026 hPa (30.31 inHg).
The relative humidity was 92.5%.
 
The sky was overcast from a height of 244 meter (800 feet)
 
The overall visibility was 8.0 kilometers (5.0 miles).
 
Currently mist.

 
 
 
 

Country :   A   B   C   D   E   F   G   H   I   J   K   L   M   N   O   P   Q   R   S   T   U   V   W   Y   Z

 

Site Info  |  Disclaimer  |  Credits  |  Privacy
Contact us  |  Add to favorites
© 2013-2019 METARs - All rights reserved